sensor_id;sensor_type;location;lat;lon;timestamp;pressure;altitude;pressure_sealevel;temperature;humidity
51530;BME280;37613;51.788;21.582;2023-08-17T02:15:12;100491.70;;;22.95;77.69
51530;BME280;37613;51.788;21.582;2023-08-17T02:24:30;100487.42;;;22.97;77.08
51530;BME280;37613;51.788;21.582;2023-08-17T02:29:27;100490.06;;;23.02;76.91
51530;BME280;37613;51.788;21.582;2023-08-17T02:34:15;100492.76;;;23.10;76.63
51530;BME280;37613;51.788;21.582;2023-08-17T02:38:27;100491.01;;;23.17;76.26
51530;BME280;37613;51.788;21.582;2023-08-17T02:42:54;100489.65;;;23.22;76.00
51530;BME280;37613;51.788;21.582;2023-08-17T02:47:22;100485.63;;;23.27;75.74
51530;BME280;37613;51.788;21.582;2023-08-17T02:51:53;100484.76;;;23.29;75.42
51530;BME280;37613;51.788;21.582;2023-08-17T02:56:22;100487.77;;;23.29;75.37
51530;BME280;37613;51.788;21.582;2023-08-17T03:01:44;100489.95;;;23.23;75.11
51530;BME280;37613;51.788;21.582;2023-08-17T03:05:52;100493.41;;;23.16;75.02
51530;BME280;37613;51.788;21.582;2023-08-17T03:15:18;100497.94;;;23.08;74.88
51530;BME280;37613;51.788;21.582;2023-08-17T03:24:33;100496.70;;;23.11;74.87
51530;BME280;37613;51.788;21.582;2023-08-17T03:29:34;100499.95;;;23.11;74.72
51530;BME280;37613;51.788;21.582;2023-08-17T03:33:47;100504.48;;;23.15;74.65
51530;BME280;37613;51.788;21.582;2023-08-17T04:27:51;100521.20;;;23.49;74.98
51530;BME280;37613;51.788;21.582;2023-08-17T04:32:01;100524.63;;;23.66;75.13
51530;BME280;37613;51.788;21.582;2023-08-17T04:41:05;100526.36;;;24.02;74.95
51530;BME280;37613;51.788;21.582;2023-08-17T05:02:37;100522.16;;;25.16;73.23
51530;BME280;37613;51.788;21.582;2023-08-17T05:06:45;100523.20;;;25.45;73.23
51530;BME280;37613;51.788;21.582;2023-08-17T05:10:48;100518.88;;;25.95;73.05
51530;BME280;37613;51.788;21.582;2023-08-17T05:14:55;100520.85;;;26.67;73.26
51530;BME280;37613;51.788;21.582;2023-08-17T05:18:57;100532.57;;;27.02;71.40
51530;BME280;37613;51.788;21.582;2023-08-17T05:23:31;100532.50;;;26.86;70.96
51530;BME280;37613;51.788;21.582;2023-08-17T07:34:21;100554.86;;;32.11;54.05
51530;BME280;37613;51.788;21.582;2023-08-17T08:00:57;100554.42;;;31.33;52.06
51530;BME280;37613;51.788;21.582;2023-08-17T08:05:34;100558.48;;;31.17;51.71
51530;BME280;37613;51.788;21.582;2023-08-17T08:18:39;100552.49;;;31.10;50.79
51530;BME280;37613;51.788;21.582;2023-08-17T08:22:55;100551.19;;;31.26;50.64
51530;BME280;37613;51.788;21.582;2023-08-17T08:27:11;100554.48;;;31.43;50.24
51530;BME280;37613;51.788;21.582;2023-08-17T08:31:13;100556.21;;;31.64;50.42
51530;BME280;37613;51.788;21.582;2023-08-17T08:35:30;100559.13;;;31.76;49.67
51530;BME280;37613;51.788;21.582;2023-08-17T08:39:54;100560.39;;;31.73;49.11
51530;BME280;37613;51.788;21.582;2023-08-17T08:43:56;100561.20;;;31.82;48.69
51530;BME280;37613;51.788;21.582;2023-08-17T08:48:00;100554.53;;;32.02;48.70
51530;BME280;37613;51.788;21.582;2023-08-17T08:52:07;100553.54;;;32.15;48.33
51530;BME280;37613;51.788;21.582;2023-08-17T08:56:11;100548.89;;;32.27;48.42
51530;BME280;37613;51.788;21.582;2023-08-17T09:00:16;100552.84;;;32.33;48.20
51530;BME280;37613;51.788;21.582;2023-08-17T09:04:23;100550.34;;;32.37;47.99
51530;BME280;37613;51.788;21.582;2023-08-17T09:08:30;100548.02;;;32.39;47.46
51530;BME280;37613;51.788;21.582;2023-08-17T09:12:32;100548.48;;;32.36;46.88
51530;BME280;37613;51.788;21.582;2023-08-17T09:16:38;100547.91;;;32.40;47.08
51530;BME280;37613;51.788;21.582;2023-08-17T09:20:46;100543.73;;;32.52;46.43
51530;BME280;37613;51.788;21.582;2023-08-17T09:24:48;100541.60;;;32.67;46.09
51530;BME280;37613;51.788;21.582;2023-08-17T09:28:54;100539.97;;;32.94;45.92
51530;BME280;37613;51.788;21.582;2023-08-17T09:33:12;100536.53;;;33.26;45.86
51530;BME280;37613;51.788;21.582;2023-08-17T09:37:13;100537.55;;;33.59;44.80
51530;BME280;37613;51.788;21.582;2023-08-17T09:41:15;100538.73;;;33.83;43.93
51530;BME280;37613;51.788;21.582;2023-08-17T09:45:17;100534.16;;;33.93;43.18
51530;BME280;37613;51.788;21.582;2023-08-17T09:49:24;100534.15;;;34.12;42.52
51530;BME280;37613;51.788;21.582;2023-08-17T09:53:25;100534.96;;;34.27;40.73
51530;BME280;37613;51.788;21.582;2023-08-17T09:57:30;100532.09;;;34.38;40.42
51530;BME280;37613;51.788;21.582;2023-08-17T10:01:48;100528.46;;;34.29;39.86
51530;BME280;37613;51.788;21.582;2023-08-17T10:06:10;100523.54;;;34.28;39.83
51530;BME280;37613;51.788;21.582;2023-08-17T10:10:31;100523.15;;;34.42;38.69
51530;BME280;37613;51.788;21.582;2023-08-17T10:14:50;100516.60;;;34.50;38.26
51530;BME280;37613;51.788;21.582;2023-08-17T10:23:15;100515.55;;;34.69;37.41
51530;BME280;37613;51.788;21.582;2023-08-17T10:31:44;100513.66;;;34.41;36.25
51530;BME280;37613;51.788;21.582;2023-08-17T10:35:49;100509.45;;;34.05;35.54
51530;BME280;37613;51.788;21.582;2023-08-17T10:39:55;100501.95;;;33.90;36.14
51530;BME280;37613;51.788;21.582;2023-08-17T10:43:59;100502.89;;;33.89;35.40
51530;BME280;37613;51.788;21.582;2023-08-17T10:48:26;100505.45;;;33.72;33.90
51530;BME280;37613;51.788;21.582;2023-08-17T10:52:31;100506.16;;;33.79;34.35
51530;BME280;37613;51.788;21.582;2023-08-17T10:56:33;100507.54;;;33.72;34.51
51530;BME280;37613;51.788;21.582;2023-08-17T11:00:38;100512.20;;;33.47;34.85
51530;BME280;37613;51.788;21.582;2023-08-17T11:04:40;100514.02;;;33.20;35.48
51530;BME280;37613;51.788;21.582;2023-08-17T11:08:54;100516.79;;;32.91;36.35
51530;BME280;37613;51.788;21.582;2023-08-17T11:12:57;100514.36;;;32.68;36.82
51530;BME280;37613;51.788;21.582;2023-08-17T11:17:03;100519.61;;;32.51;36.86
51530;BME280;37613;51.788;21.582;2023-08-17T11:21:07;100516.48;;;32.29;36.84
51530;BME280;37613;51.788;21.582;2023-08-17T11:25:08;100512.37;;;32.13;36.66
51530;BME280;37613;51.788;21.582;2023-08-17T11:29:12;100516.85;;;32.13;36.90
51530;BME280;37613;51.788;21.582;2023-08-17T11:33:14;100515.18;;;32.09;36.97
51530;BME280;37613;51.788;21.582;2023-08-17T11:37:30;100516.34;;;32.17;37.21
51530;BME280;37613;51.788;21.582;2023-08-17T11:41:32;100513.45;;;32.23;37.14
51530;BME280;37613;51.788;21.582;2023-08-17T11:45:34;100515.23;;;32.23;37.65
51530;BME280;37613;51.788;21.582;2023-08-17T11:49:36;100515.82;;;32.17;37.98
51530;BME280;37613;51.788;21.582;2023-08-17T11:53:38;100515.15;;;32.11;38.15
51530;BME280;37613;51.788;21.582;2023-08-17T11:57:40;100509.22;;;32.03;37.99
51530;BME280;37613;51.788;21.582;2023-08-17T12:01:41;100511.91;;;31.97;38.29
51530;BME280;37613;51.788;21.582;2023-08-17T12:05:45;100512.38;;;31.96;38.14
51530;BME280;37613;51.788;21.582;2023-08-17T12:09:48;100511.32;;;31.89;38.02
51530;BME280;37613;51.788;21.582;2023-08-17T12:13:52;100509.48;;;31.81;38.22
51530;BME280;37613;51.788;21.582;2023-08-17T12:17:59;100508.29;;;31.74;37.93
51530;BME280;37613;51.788;21.582;2023-08-17T12:22:12;100503.54;;;31.66;37.62
51530;BME280;37613;51.788;21.582;2023-08-17T12:26:19;100500.42;;;31.66;37.63
51530;BME280;37613;51.788;21.582;2023-08-17T12:30:31;100499.07;;;31.72;37.94
51530;BME280;37613;51.788;21.582;2023-08-17T12:34:34;100499.17;;;31.78;37.67
51530;BME280;37613;51.788;21.582;2023-08-17T12:38:38;100499.34;;;31.77;37.78
51530;BME280;37613;51.788;21.582;2023-08-17T12:42:46;100497.10;;;31.75;37.45
51530;BME280;37613;51.788;21.582;2023-08-17T12:46:48;100492.80;;;31.73;37.45
51530;BME280;37613;51.788;21.582;2023-08-17T12:50:50;100493.77;;;31.75;37.14
51530;BME280;37613;51.788;21.582;2023-08-17T12:54:52;100492.48;;;31.80;37.64
51530;BME280;37613;51.788;21.582;2023-08-17T12:58:54;100487.88;;;31.84;37.67
51530;BME280;37613;51.788;21.582;2023-08-17T13:02:58;100484.81;;;31.84;37.52
51530;BME280;37613;51.788;21.582;2023-08-17T13:07:00;100480.26;;;31.86;37.79
51530;BME280;37613;51.788;21.582;2023-08-17T13:11:03;100480.38;;;31.94;38.18
51530;BME280;37613;51.788;21.582;2023-08-17T13:15:05;100476.10;;;31.99;38.27
51530;BME280;37613;51.788;21.582;2023-08-17T13:19:22;100475.73;;;31.99;38.48
51530;BME280;37613;51.788;21.582;2023-08-17T13:23:23;100472.42;;;31.99;38.60
51530;BME280;37613;51.788;21.582;2023-08-17T13:27:26;100471.27;;;32.03;39.00
51530;BME280;37613;51.788;21.582;2023-08-17T13:31:29;100466.05;;;32.12;39.35
51530;BME280;37613;51.788;21.582;2023-08-17T13:35:31;100465.27;;;32.24;39.44
51530;BME280;37613;51.788;21.582;2023-08-17T13:39:33;100462.96;;;32.45;39.67
51530;BME280;37613;51.788;21.582;2023-08-17T13:43:34;100459.46;;;32.70;39.38
51530;BME280;37613;51.788;21.582;2023-08-17T13:47:36;100458.04;;;32.86;38.92
51530;BME280;37613;51.788;21.582;2023-08-17T13:51:38;100454.85;;;32.96;38.85
51530;BME280;37613;51.788;21.582;2023-08-17T13:55:39;100451.48;;;33.13;38.49
51530;BME280;37613;51.788;21.582;2023-08-17T13:59:42;100449.20;;;33.24;37.97
51530;BME280;37613;51.788;21.582;2023-08-17T14:03:48;100447.29;;;33.23;37.04
51530;BME280;37613;51.788;21.582;2023-08-17T14:07:50;100444.84;;;33.17;37.25
51530;BME280;37613;51.788;21.582;2023-08-17T14:11:53;100439.89;;;33.09;37.17
51530;BME280;37613;51.788;21.582;2023-08-17T14:15:54;100437.75;;;33.00;37.46
51530;BME280;37613;51.788;21.582;2023-08-17T14:19:59;100436.81;;;32.91;37.21
51530;BME280;37613;51.788;21.582;2023-08-17T14:24:00;100435.10;;;32.80;37.35
51530;BME280;37613;51.788;21.582;2023-08-17T14:28:04;100427.83;;;32.66;37.36
51530;BME280;37613;51.788;21.582;2023-08-17T14:32:06;100423.71;;;32.56;37.80
51530;BME280;37613;51.788;21.582;2023-08-17T14:36:10;100423.36;;;32.46;37.50
51530;BME280;37613;51.788;21.582;2023-08-17T14:40:11;100415.83;;;32.33;37.67
51530;BME280;37613;51.788;21.582;2023-08-17T14:44:14;100418.67;;;32.23;38.00
51530;BME280;37613;51.788;21.582;2023-08-17T14:48:17;100416.48;;;32.15;38.05
51530;BME280;37613;51.788;21.582;2023-08-17T14:52:18;100415.52;;;32.08;38.44
51530;BME280;37613;51.788;21.582;2023-08-17T14:56:21;100415.13;;;32.05;38.62
51530;BME280;37613;51.788;21.582;2023-08-17T15:00:24;100413.54;;;32.03;38.94
51530;BME280;37613;51.788;21.582;2023-08-17T15:04:26;100414.96;;;32.04;39.10
51530;BME280;37613;51.788;21.582;2023-08-17T15:08:28;100413.09;;;32.05;39.38
51530;BME280;37613;51.788;21.582;2023-08-17T15:12:29;100418.85;;;32.07;39.99
51530;BME280;37613;51.788;21.582;2023-08-17T15:16:32;100418.29;;;32.06;40.28
51530;BME280;37613;51.788;21.582;2023-08-17T15:20:35;100416.84;;;31.97;40.09
51530;BME280;37613;51.788;21.582;2023-08-17T15:24:36;100413.11;;;31.84;40.13
51530;BME280;37613;51.788;21.582;2023-08-17T15:28:39;100416.16;;;31.76;40.29
51530;BME280;37613;51.788;21.582;2023-08-17T15:32:41;100409.70;;;31.67;40.55
51530;BME280;37613;51.788;21.582;2023-08-17T15:36:42;100402.01;;;31.64;40.62
51530;BME280;37613;51.788;21.582;2023-08-17T15:40:43;100396.38;;;31.61;41.13
51530;BME280;37613;51.788;21.582;2023-08-17T15:44:44;100396.66;;;31.58;42.00
51530;BME280;37613;51.788;21.582;2023-08-17T15:48:45;100396.20;;;31.54;42.54
51530;BME280;37613;51.788;21.582;2023-08-17T15:52:47;100400.75;;;31.48;43.11
51530;BME280;37613;51.788;21.582;2023-08-17T15:56:49;100402.79;;;31.41;43.52
51530;BME280;37613;51.788;21.582;2023-08-17T16:00:50;100406.42;;;31.33;44.12
51530;BME280;37613;51.788;21.582;2023-08-17T16:04:51;100412.10;;;31.25;44.64
51530;BME280;37613;51.788;21.582;2023-08-17T16:08:53;100417.54;;;31.14;44.89
51530;BME280;37613;51.788;21.582;2023-08-17T16:12:54;100422.69;;;31.03;45.60
51530;BME280;37613;51.788;21.582;2023-08-17T16:16:55;100427.80;;;30.90;45.85
51530;BME280;37613;51.788;21.582;2023-08-17T16:20:56;100427.55;;;30.73;46.00
51530;BME280;37613;51.788;21.582;2023-08-17T16:24:58;100435.50;;;30.56;46.28
51530;BME280;37613;51.788;21.582;2023-08-17T16:28:59;100437.88;;;30.41;46.95
51530;BME280;37613;51.788;21.582;2023-08-17T16:33:00;100436.80;;;30.24;47.36
51530;BME280;37613;51.788;21.582;2023-08-17T16:37:02;100433.24;;;30.03;47.56
51530;BME280;37613;51.788;21.582;2023-08-17T16:41:03;100431.25;;;29.85;48.14
51530;BME280;37613;51.788;21.582;2023-08-17T16:45:19;100426.95;;;29.72;48.90
51530;BME280;37613;51.788;21.582;2023-08-17T16:49:22;100423.58;;;29.60;49.17
51530;BME280;37613;51.788;21.582;2023-08-17T16:53:24;100426.92;;;29.43;49.56
51530;BME280;37613;51.788;21.582;2023-08-17T16:57:25;100433.63;;;29.25;50.38
51530;BME280;37613;51.788;21.582;2023-08-17T17:01:32;100439.45;;;29.10;51.10
51530;BME280;37613;51.788;21.582;2023-08-17T17:05:34;100437.13;;;28.95;51.47
51530;BME280;37613;51.788;21.582;2023-08-17T17:09:37;100435.46;;;28.83;51.94
51530;BME280;37613;51.788;21.582;2023-08-17T17:13:38;100434.11;;;28.75;52.45
51530;BME280;37613;51.788;21.582;2023-08-17T17:17:41;100432.34;;;28.67;52.70
51530;BME280;37613;51.788;21.582;2023-08-17T17:21:44;100424.63;;;28.56;53.08
51530;BME280;37613;51.788;21.582;2023-08-17T17:25:45;100415.77;;;28.44;53.32
51530;BME280;37613;51.788;21.582;2023-08-17T17:29:47;100411.23;;;28.30;53.99
51530;BME280;37613;51.788;21.582;2023-08-17T17:33:49;100407.23;;;28.14;54.37
51530;BME280;37613;51.788;21.582;2023-08-17T17:37:52;100404.10;;;27.98;55.01
51530;BME280;37613;51.788;21.582;2023-08-17T17:41:54;100399.65;;;27.82;55.59
51530;BME280;37613;51.788;21.582;2023-08-17T17:45:57;100401.85;;;27.67;56.00
51530;BME280;37613;51.788;21.582;2023-08-17T17:49:59;100401.19;;;27.50;56.54
51530;BME280;37613;51.788;21.582;2023-08-17T17:54:01;100404.66;;;27.33;57.05
51530;BME280;37613;51.788;21.582;2023-08-17T17:58:03;100403.41;;;27.16;57.29
51530;BME280;37613;51.788;21.582;2023-08-17T18:02:07;100401.98;;;26.99;57.52
51530;BME280;37613;51.788;21.582;2023-08-17T18:06:08;100399.84;;;26.82;57.82
51530;BME280;37613;51.788;21.582;2023-08-17T18:10:10;100402.52;;;26.67;58.51
51530;BME280;37613;51.788;21.582;2023-08-17T18:14:12;100405.68;;;26.53;58.99
51530;BME280;37613;51.788;21.582;2023-08-17T18:18:15;100407.95;;;26.39;59.25
51530;BME280;37613;51.788;21.582;2023-08-17T18:22:17;100406.98;;;26.21;59.55
51530;BME280;37613;51.788;21.582;2023-08-17T18:26:19;100405.77;;;26.04;59.94
51530;BME280;37613;51.788;21.582;2023-08-17T18:30:20;100407.42;;;25.88;60.71
51530;BME280;37613;51.788;21.582;2023-08-17T18:34:24;100409.00;;;25.73;61.25
51530;BME280;37613;51.788;21.582;2023-08-17T18:38:25;100409.75;;;25.62;61.59
51530;BME280;37613;51.788;21.582;2023-08-17T18:42:30;100403.66;;;25.53;61.94
51530;BME280;37613;51.788;21.582;2023-08-17T18:46:32;100404.69;;;25.45;62.22
51530;BME280;37613;51.788;21.582;2023-08-17T18:50:34;100406.20;;;25.38;62.60
51530;BME280;37613;51.788;21.582;2023-08-17T18:54:39;100407.14;;;25.32;63.06
51530;BME280;37613;51.788;21.582;2023-08-17T18:58:41;100424.69;;;25.25;63.52
51530;BME280;37613;51.788;21.582;2023-08-17T19:02:43;100423.87;;;25.15;64.17
51530;BME280;37613;51.788;21.582;2023-08-17T19:06:45;100427.96;;;25.10;64.88
51530;BME280;37613;51.788;21.582;2023-08-17T19:10:53;100427.02;;;25.08;65.11
51530;BME280;37613;51.788;21.582;2023-08-17T19:14:56;100432.48;;;25.09;65.44
51530;BME280;37613;51.788;21.582;2023-08-17T19:19:01;100436.45;;;25.10;66.97
51530;BME280;37613;51.788;21.582;2023-08-17T19:23:05;100435.70;;;25.00;67.09
51530;BME280;37613;51.788;21.582;2023-08-17T19:27:11;100427.39;;;24.95;66.84
51530;BME280;37613;51.788;21.582;2023-08-17T19:31:13;100420.80;;;24.92;66.99
51530;BME280;37613;51.788;21.582;2023-08-17T19:35:18;100413.34;;;24.85;67.49
51530;BME280;37613;51.788;21.582;2023-08-17T19:39:21;100411.50;;;24.73;68.13
51530;BME280;37613;51.788;21.582;2023-08-17T19:43:22;100410.85;;;24.66;68.21
51530;BME280;37613;51.788;21.582;2023-08-17T19:47:24;100409.11;;;24.59;68.09
51530;BME280;37613;51.788;21.582;2023-08-17T19:51:31;100410.39;;;24.53;68.49
51530;BME280;37613;51.788;21.582;2023-08-17T19:55:33;100412.54;;;24.47;68.57
51530;BME280;37613;51.788;21.582;2023-08-17T19:59:39;100420.41;;;24.39;68.90
51530;BME280;37613;51.788;21.582;2023-08-17T20:03:41;100426.39;;;24.32;69.13
51530;BME280;37613;51.788;21.582;2023-08-17T20:07:45;100425.64;;;24.26;69.47
51530;BME280;37613;51.788;21.582;2023-08-17T20:11:46;100430.52;;;24.12;70.26
51530;BME280;37613;51.788;21.582;2023-08-17T20:15:54;100438.11;;;23.95;70.33
51530;BME280;37613;51.788;21.582;2023-08-17T20:20:06;100438.26;;;23.81;70.46
51530;BME280;37613;51.788;21.582;2023-08-17T20:24:17;100442.29;;;23.75;70.85
51530;BME280;37613;51.788;21.582;2023-08-17T20:28:20;100448.10;;;23.75;71.26
51530;BME280;37613;51.788;21.582;2023-08-17T20:32:31;100447.54;;;23.81;71.43
51530;BME280;37613;51.788;21.582;2023-08-17T20:36:33;100451.13;;;23.88;71.45
51530;BME280;37613;51.788;21.582;2023-08-17T20:40:53;100451.04;;;23.88;71.69
51530;BME280;37613;51.788;21.582;2023-08-17T20:45:04;100444.50;;;23.85;72.00
51530;BME280;37613;51.788;21.582;2023-08-17T20:49:08;100443.90;;;23.86;71.91
51530;BME280;37613;51.788;21.582;2023-08-17T20:53:10;100442.01;;;23.86;71.93
51530;BME280;37613;51.788;21.582;2023-08-17T20:57:12;100435.04;;;23.87;72.16
51530;BME280;37613;51.788;21.582;2023-08-17T21:01:14;100437.28;;;23.86;72.40
51530;BME280;37613;51.788;21.582;2023-08-17T21:05:17;100437.84;;;23.83;72.51
51530;BME280;37613;51.788;21.582;2023-08-17T21:09:39;100435.83;;;23.78;72.45
51530;BME280;37613;51.788;21.582;2023-08-17T21:13:41;100434.35;;;23.74;72.61
51530;BME280;37613;51.788;21.582;2023-08-17T21:17:45;100443.52;;;23.73;72.57
51530;BME280;37613;51.788;21.582;2023-08-17T21:22:02;100449.61;;;23.74;72.77
51530;BME280;37613;51.788;21.582;2023-08-17T21:26:06;100447.91;;;23.74;72.99
51530;BME280;37613;51.788;21.582;2023-08-17T21:30:23;100453.73;;;23.70;73.11
51530;BME280;37613;51.788;21.582;2023-08-17T21:34:26;100461.88;;;23.67;73.25
51530;BME280;37613;51.788;21.582;2023-08-17T21:38:28;100465.78;;;23.65;73.39
51530;BME280;37613;51.788;21.582;2023-08-17T21:42:38;100469.91;;;23.61;73.41
51530;BME280;37613;51.788;21.582;2023-08-17T21:46:42;100477.39;;;23.53;73.42
51530;BME280;37613;51.788;21.582;2023-08-17T21:50:46;100474.40;;;23.45;73.90
51530;BME280;37613;51.788;21.582;2023-08-17T21:55:03;100470.73;;;23.42;74.01
51530;BME280;37613;51.788;21.582;2023-08-17T21:59:04;100474.30;;;23.42;74.18
51530;BME280;37613;51.788;21.582;2023-08-17T22:03:05;100472.38;;;23.40;74.13
51530;BME280;37613;51.788;21.582;2023-08-17T22:07:12;100460.83;;;23.34;74.31
51530;BME280;37613;51.788;21.582;2023-08-17T22:11:14;100469.09;;;23.28;74.52
51530;BME280;37613;51.788;21.582;2023-08-17T22:15:24;100460.08;;;23.23;74.76
51530;BME280;37613;51.788;21.582;2023-08-17T22:19:41;100453.77;;;23.20;74.92
51530;BME280;37613;51.788;21.582;2023-08-17T22:24:19;100457.87;;;23.17;74.96
51530;BME280;37613;51.788;21.582;2023-08-17T22:28:31;100460.14;;;23.08;75.04
51530;BME280;37613;51.788;21.582;2023-08-17T22:32:32;100467.33;;;22.98;75.30
51530;BME280;37613;51.788;21.582;2023-08-17T22:36:37;100461.86;;;22.87;75.43
51530;BME280;37613;51.788;21.582;2023-08-17T22:40:57;100461.08;;;22.79;75.65
51530;BME280;37613;51.788;21.582;2023-08-17T22:45:01;100453.06;;;22.74;75.79
51530;BME280;37613;51.788;21.582;2023-08-17T22:49:02;100455.11;;;22.70;76.00
51530;BME280;37613;51.788;21.582;2023-08-17T22:53:04;100457.59;;;22.69;76.12
51530;BME280;37613;51.788;21.582;2023-08-17T22:57:14;100462.10;;;22.69;76.33
51530;BME280;37613;51.788;21.582;2023-08-17T23:01:25;100458.52;;;22.70;76.43
51530;BME280;37613;51.788;21.582;2023-08-17T23:05:32;100464.82;;;22.69;76.65
51530;BME280;37613;51.788;21.582;2023-08-17T23:09:37;100469.18;;;22.64;76.91
51530;BME280;37613;51.788;21.582;2023-08-17T23:13:57;100464.09;;;22.61;77.31
51530;BME280;37613;51.788;21.582;2023-08-17T23:18:04;100460.61;;;22.61;77.34
51530;BME280;37613;51.788;21.582;2023-08-17T23:22:06;100457.47;;;22.63;77.43
51530;BME280;37613;51.788;21.582;2023-08-17T23:26:10;100456.89;;;22.60;77.66
51530;BME280;37613;51.788;21.582;2023-08-17T23:30:34;100457.80;;;22.54;77.62
51530;BME280;37613;51.788;21.582;2023-08-17T23:34:37;100448.96;;;22.43;78.40
51530;BME280;37613;51.788;21.582;2023-08-17T23:38:51;100443.09;;;22.28;78.48
51530;BME280;37613;51.788;21.582;2023-08-17T23:42:52;100448.56;;;22.23;78.54
51530;BME280;37613;51.788;21.582;2023-08-17T23:47:05;100446.28;;;22.25;78.77
51530;BME280;37613;51.788;21.582;2023-08-17T23:51:09;100445.66;;;22.29;78.73
51530;BME280;37613;51.788;21.582;2023-08-17T23:55:11;100444.75;;;22.27;78.70
51530;BME280;37613;51.788;21.582;2023-08-17T23:59:12;100451.26;;;22.25;78.62
